Time;durP1;ratioP1;P1;durP2;ratioP2;P2;SDS_P1;SDS_P2;PMS_P1;PMS_P2;Temp;Humidity;BMP_temperature;BMP_pressure;BME280_temperature;BME280_humidity;BME280_pressure;Samples;Min_cycle;Max_cycle;Signal;HPM_P1;HPM_P2
2022/12/25 00:01:51;;;;;;;1.25;1.15;;;17.00;44.40;;;;;;4941177;28;20157;-82
2022/12/25 00:04:17;;;;;;;0.95;0.90;;;17.00;44.50;;;;;;4925737;28;20224;-82
2022/12/25 00:06:42;;;;;;;1.13;0.90;;;17.10;44.60;;;;;;4957144;28;20505;-82
2022/12/25 00:09:08;;;;;;;1.20;1.10;;;17.00;44.60;;;;;;4925275;28;20172;-82
2022/12/25 00:11:33;;;;;;;1.27;1.13;;;17.10;44.60;;;;;;4957055;28;20171;-82
2022/12/25 00:13:59;;;;;;;1.02;0.93;;;17.00;44.50;;;;;;4941032;28;20183;-82
2022/12/25 00:16:25;;;;;;;1.05;0.95;;;16.90;44.50;;;;;;4940861;28;20188;-82
2022/12/25 00:18:52;;;;;;;1.08;0.98;;;17.00;44.50;;;;;;4957030;28;20206;-82
2022/12/25 00:21:18;;;;;;;1.55;1.25;;;17.00;44.50;;;;;;4941163;28;20228;-82
2022/12/25 00:23:44;;;;;;;1.20;1.10;;;17.00;44.30;;;;;;4943404;28;20157;-82
2022/12/25 00:26:12;;;;;;;1.23;1.13;;;17.00;44.40;;;;;;4944721;28;20223;-82
2022/12/25 00:28:38;;;;;;;1.23;1.13;;;17.00;44.50;;;;;;4928960;28;20611;-82
2022/12/25 00:31:11;;;;;;;1.05;0.95;;;17.00;45.10;;;;;;4945321;28;20240;-82
2022/12/25 00:33:38;;;;;;;1.20;1.05;;;17.00;44.50;;;;;;4960720;28;20171;-82
2022/12/25 00:36:05;;;;;;;1.00;0.90;;;17.00;44.60;;;;;;4928723;28;20200;-82
2022/12/25 00:38:31;;;;;;;0.88;0.88;;;17.00;44.50;;;;;;4944854;28;20631;-82
2022/12/25 00:40:56;;;;;;;1.10;1.00;;;17.00;44.70;;;;;;4944672;28;20252;-82
2022/12/25 00:43:22;;;;;;;1.35;1.20;;;17.00;44.60;;;;;;4944368;28;20172;-81
2022/12/25 00:45:56;;;;;;;1.35;1.08;;;17.00;44.70;;;;;;4944408;28;20577;-81
2022/12/25 00:48:21;;;;;;;0.90;0.90;;;17.00;44.70;;;;;;4928781;28;20244;-82
2022/12/25 00:50:51;;;;;;;0.90;0.90;;;17.00;44.60;;;;;;4944630;28;20580;-81
2022/12/25 00:53:17;;;;;;;1.00;0.95;;;17.00;44.50;;;;;;4960757;28;20205;-82
2022/12/25 00:55:42;;;;;;;1.40;1.00;;;17.00;44.50;;;;;;4944541;28;20667;-82
2022/12/25 00:58:08;;;;;;;1.05;0.93;;;17.00;44.50;;;;;;4944100;28;20188;-82
2022/12/25 01:00:34;;;;;;;1.00;0.90;;;17.10;44.60;;;;;;4928896;28;20530;-82
2022/12/25 01:02:59;;;;;;;0.95;0.95;;;17.00;44.40;;;;;;4928052;28;20165;-82
2022/12/25 01:05:25;;;;;;;0.90;0.90;;;17.00;44.60;;;;;;4928157;28;20161;-82
2022/12/25 01:07:51;;;;;;;1.23;1.05;;;17.00;44.50;;;;;;4960048;28;20630;-82
2022/12/25 01:10:23;;;;;;;1.50;1.20;;;17.00;44.50;;;;;;4959933;28;20157;-82
2022/12/25 01:12:50;;;;;;;1.20;1.10;;;17.00;44.60;;;;;;4929961;28;20255;-82
2022/12/25 01:15:15;;;;;;;1.23;1.13;;;17.00;44.60;;;;;;4943927;28;20153;-82
2022/12/25 01:17:42;;;;;;;1.20;1.10;;;17.00;44.60;;;;;;4943657;28;20203;-82
2022/12/25 01:20:09;;;;;;;0.90;0.90;;;17.00;44.70;;;;;;4928409;28;20165;-81
2022/12/25 01:22:34;;;;;;;1.10;1.00;;;17.00;44.60;;;;;;4927938;28;20172;-82
2022/12/25 01:25:00;;;;;;;0.98;0.93;;;16.90;44.60;;;;;;4927828;28;20165;-81
2022/12/25 01:27:26;;;;;;;1.42;1.20;;;16.90;44.60;;;;;;4927806;28;20232;-82
2022/12/25 01:29:51;;;;;;;0.88;0.85;;;17.00;44.70;;;;;;4927670;28;20176;-82
2022/12/25 01:32:17;;;;;;;1.10;1.00;;;17.00;44.70;;;;;;4943394;28;20550;-82
2022/12/25 01:34:42;;;;;;;1.05;1.00;;;17.00;44.60;;;;;;4975514;28;20193;-82
2022/12/25 01:37:09;;;;;;;1.10;1.00;;;17.00;44.70;;;;;;4943506;28;20589;-82
2022/12/25 01:39:35;;;;;;;0.90;0.90;;;17.00;44.60;;;;;;4943691;28;20212;-82
2022/12/25 01:42:00;;;;;;;1.20;1.10;;;17.00;44.70;;;;;;4927439;28;20575;-82
2022/12/25 01:45:01;;;;;;;1.02;1.00;;;16.90;44.70;;;;;;4959359;28;20157;-81
2022/12/25 01:47:27;;;;;;;1.10;1.00;;;17.00;44.70;;;;;;4959156;28;20169;-82
2022/12/25 01:49:52;;;;;;;1.35;1.20;;;17.00;44.70;;;;;;4959650;28;20211;-81
2022/12/25 01:52:21;;;;;;;1.20;1.10;;;16.90;44.70;;;;;;4927571;28;20191;-82
2022/12/25 01:54:52;;;;;;;0.93;0.93;;;17.00;44.80;;;;;;4943296;28;20293;-82
2022/12/25 01:57:21;;;;;;;1.00;0.90;;;17.00;44.80;;;;;;4943499;28;20309;-82
2022/12/25 01:59:47;;;;;;;1.20;1.10;;;17.00;44.70;;;;;;4943460;28;20153;-81
2022/12/25 02:02:14;;;;;;;0.95;0.93;;;16.90;44.70;;;;;;4948006;28;20167;-82
2022/12/25 02:04:46;;;;;;;0.90;0.90;;;16.90;44.70;;;;;;4934933;28;20196;-82
2022/12/25 02:07:14;;;;;;;1.23;1.08;;;17.00;44.70;;;;;;4950823;28;20176;-82
2022/12/25 02:09:40;;;;;;;1.27;1.00;;;17.00;44.70;;;;;;4935601;28;20180;-82
2022/12/25 02:12:07;;;;;;;1.42;1.15;;;17.00;44.70;;;;;;4947281;28;20211;-81
2022/12/25 02:14:34;;;;;;;1.00;0.90;;;17.00;44.80;;;;;;4958882;28;20157;-82
2022/12/25 02:17:33;;;;;;;1.20;1.10;;;16.90;44.60;;;;;;4958663;28;20193;-82
2022/12/25 02:20:33;;;;;;;1.00;0.90;;;16.90;44.80;;;;;;4946392;28;20235;-81
2022/12/25 02:23:22;;;;;;;0.80;0.80;;;16.90;44.70;;;;;;4975900;28;20161;-82
2022/12/25 02:26:13;;;;;;;1.10;1.00;;;17.00;44.80;;;;;;4944820;28;20205;-82
2022/12/25 02:28:57;;;;;;;1.10;1.00;;;16.90;44.80;;;;;;4961265;28;20647;-82
2022/12/25 02:31:37;;;;;;;1.23;1.10;;;16.90;44.80;;;;;;4958461;28;20168;-82
2022/12/25 02:34:14;;;;;;;1.10;1.00;;;16.90;44.80;;;;;;4942343;28;20192;-82
2022/12/25 02:37:03;;;;;;;1.27;1.08;;;16.90;44.70;;;;;;4926697;28;20239;-81
2022/12/25 02:39:58;;;;;;;1.35;1.15;;;16.90;44.70;;;;;;4961060;28;20240;-82
2022/12/25 03:06:45;;;;;;;0.80;0.80;;;16.90;44.80;;;;;;4945559;28;20161;-82
2022/12/25 03:12:04;;;;;;;0.95;0.95;;;16.90;44.80;;;;;;4945692;28;20161;-82
2022/12/25 03:17:09;;;;;;;1.30;1.10;;;16.90;44.90;;;;;;4974889;28;20536;-82
2022/12/25 03:27:48;;;;;;;1.00;0.90;;;16.90;44.90;;;;;;4945349;28;20246;-82
2022/12/25 03:33:08;;;;;;;1.55;1.08;;;16.90;44.90;;;;;;4959999;28;20531;-82
2022/12/25 03:35:48;;;;;;;1.00;0.90;;;16.90;44.90;;;;;;4941780;28;20599;-82
2022/12/25 03:47:57;;;;;;;1.08;0.98;;;16.90;44.80;;;;;;4962367;28;20227;-82
2022/12/25 04:36:07;;;;;;;1.10;1.00;;;16.90;45.00;;;;;;4962570;28;20199;-82
2022/12/25 04:38:33;;;;;;;1.10;0.90;;;16.80;45.00;;;;;;4944523;28;20249;-82
2022/12/25 04:40:59;;;;;;;1.08;0.98;;;16.90;44.90;;;;;;4944524;28;20204;-82
2022/12/25 04:43:25;;;;;;;1.20;1.10;;;16.90;45.00;;;;;;4944575;28;20150;-82
2022/12/25 04:45:53;;;;;;;1.08;1.08;;;16.80;45.00;;;;;;4928728;28;20188;-82
2022/12/25 04:48:19;;;;;;;1.30;1.10;;;16.80;45.00;;;;;;4944665;28;20525;-82
2022/12/25 04:50:44;;;;;;;1.30;1.13;;;16.80;44.90;;;;;;4928942;28;20230;-82
2022/12/25 04:53:10;;;;;;;0.80;0.80;;;16.80;45.00;;;;;;4944425;28;20571;-82
2022/12/25 04:55:35;;;;;;;1.13;1.02;;;16.80;44.90;;;;;;4944231;28;20578;-82
2022/12/25 04:58:01;;;;;;;1.10;1.00;;;16.80;45.00;;;;;;4960221;28;20519;-82
2022/12/25 05:00:28;;;;;;;1.15;1.05;;;16.80;44.90;;;;;;4977515;28;20520;-82
2022/12/25 05:02:56;;;;;;;0.85;0.85;;;16.80;45.00;;;;;;4944245;28;20173;-81
2022/12/25 05:05:21;;;;;;;1.20;1.10;;;16.80;45.00;;;;;;4960201;28;20631;-82
2022/12/25 05:07:47;;;;;;;1.15;1.05;;;16.80;45.00;;;;;;4977256;28;20161;-82
2022/12/25 05:10:13;;;;;;;0.88;0.70;;;16.70;44.90;;;;;;4943769;28;20574;-82
2022/12/25 05:12:38;;;;;;;1.02;0.93;;;16.90;45.00;;;;;;4960079;28;20627;-82
2022/12/25 05:15:04;;;;;;;0.90;0.80;;;16.90;45.00;;;;;;4943780;28;20184;-82
2022/12/25 05:17:30;;;;;;;0.90;0.90;;;16.80;45.00;;;;;;4959599;28;20216;-82
2022/12/25 05:19:55;;;;;;;1.10;0.90;;;16.80;44.90;;;;;;4959783;28;20157;-82
2022/12/25 05:22:21;;;;;;;0.73;0.73;;;16.80;45.10;;;;;;4943756;28;20161;-82
2022/12/25 05:24:47;;;;;;;1.05;0.95;;;16.80;44.90;;;;;;4943595;28;20252;-81
2022/12/25 05:27:13;;;;;;;0.90;0.90;;;16.80;45.00;;;;;;4924612;29;20232;-82
2022/12/25 05:29:39;;;;;;;0.80;0.80;;;16.70;45.00;;;;;;4940339;29;20653;-82
2022/12/25 05:32:04;;;;;;;1.15;0.90;;;16.80;45.10;;;;;;4924690;29;20181;-82
2022/12/25 05:34:30;;;;;;;1.10;1.00;;;16.80;45.10;;;;;;4940320;29;20284;-82
2022/12/25 05:36:56;;;;;;;1.17;1.08;;;16.80;45.10;;;;;;4940283;29;20197;-81
2022/12/25 05:39:22;;;;;;;1.10;1.00;;;16.80;45.00;;;;;;4956197;29;20161;-82
2022/12/25 05:41:47;;;;;;;1.10;1.00;;;16.80;45.00;;;;;;4956196;29;20150;-82
2022/12/25 05:44:13;;;;;;;0.90;0.90;;;16.80;44.90;;;;;;4924181;29;20543;-82
2022/12/25 05:46:39;;;;;;;0.90;0.90;;;16.80;44.90;;;;;;4940172;29;20257;-82
2022/12/25 05:49:04;;;;;;;1.55;1.30;;;16.80;44.90;;;;;;4940079;29;20513;-82
2022/12/25 05:51:31;;;;;;;1.10;1.00;;;16.80;45.00;;;;;;4940469;29;20177;-82
2022/12/25 05:53:57;;;;;;;1.17;1.00;;;16.90;44.90;;;;;;4939931;29;20236;-82
2022/12/25 05:56:22;;;;;;;0.88;0.88;;;16.80;45.00;;;;;;4939898;29;20325;-82
2022/12/25 05:58:48;;;;;;;1.05;0.80;;;16.80;45.00;;;;;;4957178;29;20146;-82
2022/12/25 06:01:16;;;;;;;1.27;1.17;;;16.80;45.00;;;;;;4955740;29;20245;-82
2022/12/25 06:03:42;;;;;;;1.20;1.10;;;16.80;45.00;;;;;;4939860;29;20154;-82
2022/12/25 06:06:08;;;;;;;1.20;1.10;;;16.80;45.10;;;;;;4939775;29;20216;-82
2022/12/25 06:08:35;;;;;;;0.95;0.88;;;16.70;45.00;;;;;;4924164;29;20233;-82
2022/12/25 06:11:02;;;;;;;1.15;1.05;;;16.80;45.00;;;;;;4924463;29;20173;-82
2022/12/25 06:13:28;;;;;;;1.10;1.00;;;16.80;44.90;;;;;;4923836;29;20230;-82
2022/12/25 06:15:54;;;;;;;2.03;1.15;;;16.80;45.00;;;;;;4955707;29;20162;-81
2022/12/25 06:18:19;;;;;;;1.55;1.10;;;16.80;45.00;;;;;;4923588;29;20330;-82
2022/12/25 06:20:45;;;;;;;1.02;0.98;;;16.80;45.00;;;;;;4938902;29;20561;-82
2022/12/25 06:23:11;;;;;;;1.10;1.00;;;16.80;45.00;;;;;;4939611;29;20237;-82
2022/12/25 06:25:38;;;;;;;1.10;1.00;;;16.80;45.00;;;;;;4939692;29;20169;-82
2022/12/25 06:28:05;;;;;;;1.10;1.00;;;16.80;45.00;;;;;;4942438;28;20223;-82
2022/12/25 06:30:31;;;;;;;1.20;1.10;;;16.80;45.10;;;;;;4942709;28;20629;-82
2022/12/25 06:32:58;;;;;;;1.33;1.20;;;16.80;45.00;;;;;;4942363;28;20200;-82
2022/12/25 06:35:24;;;;;;;0.80;0.80;;;16.80;45.00;;;;;;4942814;28;20149;-81
2022/12/25 06:37:50;;;;;;;1.20;1.05;;;16.80;45.00;;;;;;4942542;28;20192;-82
2022/12/25 06:40:16;;;;;;;1.10;1.00;;;16.80;45.00;;;;;;4958337;28;20164;-81
2022/12/25 06:42:42;;;;;;;1.25;1.10;;;16.80;45.00;;;;;;4942313;28;20539;-81
2022/12/25 06:45:08;;;;;;;1.10;1.00;;;16.80;45.80;;;;;;4958223;28;20204;-81
2022/12/25 06:47:33;;;;;;;1.00;0.93;;;16.80;45.00;;;;;;4926809;28;20176;-81
2022/12/25 06:49:59;;;;;;;1.23;1.13;;;16.80;45.00;;;;;;4958327;28;20160;-82
2022/12/25 06:52:25;;;;;;;1.20;1.10;;;16.80;45.60;;;;;;4958044;28;20167;-81
2022/12/25 06:54:50;;;;;;;1.02;0.93;;;16.80;45.00;;;;;;4958049;28;20572;-81
2022/12/25 06:57:17;;;;;;;1.10;1.00;;;16.80;44.90;;;;;;4958040;28;20195;-82
2022/12/25 06:59:43;;;;;;;1.00;0.90;;;16.80;44.90;;;;;;4942272;28;20172;-81
2022/12/25 07:02:15;;;;;;;1.15;1.02;;;16.80;45.00;;;;;;4957959;28;20157;-83
2022/12/25 07:04:44;;;;;;;1.10;1.00;;;16.80;45.10;;;;;;4926269;28;20593;-81
2022/12/25 07:07:10;;;;;;;1.25;1.00;;;16.80;45.10;;;;;;4975100;28;20169;-82
2022/12/25 07:09:37;;;;;;;1.05;0.98;;;16.70;45.00;;;;;;4926266;28;20177;-82
2022/12/25 07:12:05;;;;;;;1.02;1.00;;;16.80;45.00;;;;;;4942243;28;20248;-82
2022/12/25 07:14:31;;;;;;;1.15;1.05;;;16.80;45.10;;;;;;4941898;28;20161;-82
2022/12/25 07:16:57;;;;;;;1.13;1.02;;;16.80;44.90;;;;;;4925849;28;20275;-82
2022/12/25 07:19:23;;;;;;;1.00;1.00;;;16.70;45.00;;;;;;4941993;28;20177;-82
2022/12/25 07:21:49;;;;;;;1.15;1.00;;;16.80;45.00;;;;;;4942303;28;20674;-82
2022/12/25 07:24:19;;;;;;;1.00;0.90;;;16.80;45.10;;;;;;4941686;28;20164;-81
2022/12/25 07:26:44;;;;;;;0.80;0.80;;;16.80;45.00;;;;;;4941772;28;20282;-81
2022/12/25 07:29:10;;;;;;;1.15;1.05;;;16.80;45.00;;;;;;4926361;28;20173;-82
2022/12/25 07:31:36;;;;;;;0.80;0.80;;;16.80;44.90;;;;;;4957633;28;20539;-82
2022/12/25 07:34:02;;;;;;;1.02;0.93;;;16.80;45.10;;;;;;4957614;28;20172;-82
2022/12/25 07:36:29;;;;;;;1.00;1.00;;;16.80;45.00;;;;;;4957561;28;20184;-82
2022/12/25 07:38:55;;;;;;;0.80;0.80;;;16.80;45.00;;;;;;4941501;28;20172;-82
2022/12/25 07:41:20;;;;;;;0.95;0.93;;;16.80;45.10;;;;;;4957467;28;20520;-82
2022/12/25 07:43:51;;;;;;;1.13;1.02;;;16.90;45.10;;;;;;4941430;28;20623;-82
2022/12/25 07:46:17;;;;;;;1.10;1.00;;;16.80;45.20;;;;;;4941434;28;20172;-82
2022/12/25 07:48:43;;;;;;;1.10;0.90;;;16.80;45.10;;;;;;4941547;28;20169;-82
2022/12/25 07:51:11;;;;;;;1.33;1.13;;;16.80;45.10;;;;;;4941233;28;20172;-82
2022/12/25 07:53:36;;;;;;;0.95;0.90;;;16.80;45.10;;;;;;4925376;28;20165;-82
2022/12/25 07:56:05;;;;;;;1.00;0.90;;;16.80;45.10;;;;;;4941244;28;20196;-82
2022/12/25 07:58:32;;;;;;;0.82;0.82;;;16.80;45.10;;;;;;4941483;28;20495;-82
2022/12/25 08:01:02;;;;;;;0.93;0.93;;;16.80;45.10;;;;;;4941468;28;20624;-82
2022/12/25 08:03:28;;;;;;;0.80;0.80;;;16.80;45.10;;;;;;4957355;28;20172;-82
2022/12/25 08:05:57;;;;;;;1.00;0.90;;;16.80;45.10;;;;;;4957196;28;20157;-82
2022/12/25 08:08:23;;;;;;;0.90;0.80;;;16.80;45.10;;;;;;4941656;28;20300;-82
2022/12/25 08:10:49;;;;;;;0.88;0.88;;;16.80;45.10;;;;;;4957160;28;20604;-82
2022/12/25 08:13:14;;;;;;;1.10;1.00;;;16.70;45.00;;;;;;4941097;28;20169;-82
2022/12/25 08:15:40;;;;;;;1.00;0.90;;;16.80;44.80;;;;;;4941065;28;20623;-81
2022/12/25 08:18:06;;;;;;;1.15;1.05;;;16.80;44.80;;;;;;4925319;28;20176;-82
2022/12/25 08:20:32;;;;;;;0.80;0.80;;;16.90;44.80;;;;;;4959551;28;20161;-82
2022/12/25 08:22:58;;;;;;;1.05;1.00;;;16.90;44.60;;;;;;4947749;28;20165;-82
2022/12/25 08:25:23;;;;;;;0.80;0.80;;;16.90;44.60;;;;;;4932837;28;20628;-82
2022/12/25 08:27:49;;;;;;;1.00;0.90;;;17.00;44.40;;;;;;4947654;28;20227;-82
2022/12/25 08:30:15;;;;;;;1.10;1.00;;;17.00;44.10;;;;;;4947371;28;20549;-82
2022/12/25 08:32:45;;;;;;;1.20;1.10;;;17.10;44.00;;;;;;4924946;28;20539;-82
2022/12/25 08:35:14;;;;;;;1.08;0.90;;;17.20;43.80;;;;;;4956938;28;20157;-81
2022/12/25 08:37:40;;;;;;;0.60;0.60;;;17.20;43.90;;;;;;4956926;28;20200;-82
2022/12/25 08:40:06;;;;;;;0.80;0.80;;;17.20;43.90;;;;;;4956972;28;20157;-82
2022/12/25 08:42:32;;;;;;;1.08;0.98;;;17.20;43.90;;;;;;4941041;28;20587;-82
2022/12/25 08:44:57;;;;;;;1.10;1.00;;;17.20;43.70;;;;;;4976553;28;20185;-82
2022/12/25 08:47:23;;;;;;;0.82;0.80;;;17.20;43.70;;;;;;4960347;28;20529;-82
2022/12/25 08:49:49;;;;;;;1.67;0.90;;;17.20;43.50;;;;;;4944530;28;20624;-82
2022/12/25 08:52:14;;;;;;;0.90;0.90;;;17.20;43.60;;;;;;4944318;28;20231;-82
2022/12/25 08:54:40;;;;;;;0.80;0.80;;;17.30;43.50;;;;;;4944262;28;20184;-82
2022/12/25 08:57:07;;;;;;;1.00;0.90;;;17.30;43.50;;;;;;4960139;28;20683;-81
2022/12/25 08:59:32;;;;;;;1.65;0.90;;;17.30;43.30;;;;;;4928652;28;20169;-82
2022/12/25 09:01:58;;;;;;;0.95;0.90;;;17.30;43.40;;;;;;4944280;28;20512;-82
2022/12/25 09:04:24;;;;;;;0.80;0.80;;;17.30;43.30;;;;;;4944428;28;20191;-82
2022/12/25 09:06:49;;;;;;;0.80;0.80;;;17.30;43.30;;;;;;4960235;28;20607;-82
2022/12/25 09:09:16;;;;;;;0.82;0.82;;;17.40;43.30;;;;;;4961023;28;20168;-82
2022/12/25 09:11:42;;;;;;;0.73;0.73;;;17.30;43.30;;;;;;4928170;28;20181;-82
2022/12/25 09:14:08;;;;;;;0.95;0.88;;;17.30;43.20;;;;;;4944136;28;20195;-82
2022/12/25 09:16:34;;;;;;;0.93;0.90;;;17.30;43.40;;;;;;4943840;28;20197;-82
2022/12/25 09:19:01;;;;;;;0.90;0.90;;;17.30;43.30;;;;;;4959960;28;20248;-82
2022/12/25 09:21:27;;;;;;;1.17;1.08;;;17.30;43.40;;;;;;4959948;28;20236;-82
2022/12/25 09:23:52;;;;;;;1.10;1.00;;;17.30;43.20;;;;;;4943876;28;20172;-82
2022/12/25 09:26:18;;;;;;;0.80;0.80;;;17.30;42.80;;;;;;4959898;28;20165;-82
2022/12/25 09:28:44;;;;;;;1.10;1.00;;;17.40;43.30;;;;;;4959747;28;20168;-82
2022/12/25 09:31:10;;;;;;;0.80;0.80;;;17.40;43.00;;;;;;4927982;28;20730;-82
2022/12/25 09:33:35;;;;;;;0.70;0.70;;;17.40;43.00;;;;;;4943843;28;20603;-82
2022/12/25 09:36:04;;;;;;;0.93;0.90;;;17.30;42.80;;;;;;4959473;28;20168;-82
2022/12/25 09:38:30;;;;;;;0.88;0.80;;;17.50;43.00;;;;;;4959556;28;20161;-81
2022/12/25 09:41:02;;;;;;;1.00;0.90;;;17.40;43.00;;;;;;4943638;28;20156;-81
2022/12/25 09:43:29;;;;;;;0.80;0.80;;;17.40;43.00;;;;;;4943870;28;20149;-81
2022/12/25 09:45:56;;;;;;;1.05;0.95;;;17.40;42.90;;;;;;4927897;28;20161;-82
2022/12/25 09:48:21;;;;;;;1.00;0.90;;;17.40;42.80;;;;;;4943432;28;20153;-81
2022/12/25 09:50:50;;;;;;;0.95;0.80;;;17.40;42.80;;;;;;4943476;28;20535;-81
2022/12/25 09:53:22;;;;;;;0.95;0.85;;;17.50;42.80;;;;;;4943567;28;20176;-82
2022/12/25 09:55:58;;;;;;;0.70;0.70;;;17.50;42.90;;;;;;4942528;28;20157;-81
2022/12/25 09:58:25;;;;;;;0.85;0.85;;;17.50;42.90;;;;;;4960166;28;20525;-82
2022/12/25 10:01:00;;;;;;;0.95;0.70;;;17.40;42.70;;;;;;4943297;28;20165;-82
2022/12/25 10:03:49;;;;;;;0.95;0.90;;;17.50;42.80;;;;;;4944113;28;20156;-81
2022/12/25 10:06:23;;;;;;;0.80;0.80;;;17.50;43.00;;;;;;4943575;28;20175;-81
2022/12/25 10:09:21;;;;;;;0.70;0.70;;;17.40;42.90;;;;;;4958965;28;20203;-82
2022/12/25 10:11:54;;;;;;;0.70;0.70;;;17.50;42.90;;;;;;4961770;28;20164;-82
2022/12/25 10:14:40;;;;;;;0.70;0.70;;;17.50;42.90;;;;;;4927535;28;20183;-82
2022/12/25 10:17:34;;;;;;;0.90;0.90;;;17.40;42.80;;;;;;4945005;28;20199;-82
2022/12/25 10:20:33;;;;;;;1.02;0.90;;;17.50;42.60;;;;;;4943452;28;20188;-82
2022/12/25 10:22:59;;;;;;;0.80;0.80;;;17.50;42.60;;;;;;4975952;28;20150;-82
2022/12/25 10:25:25;;;;;;;0.70;0.70;;;17.50;42.70;;;;;;4942774;28;20168;-81
2022/12/25 10:27:53;;;;;;;0.75;0.75;;;17.50;42.70;;;;;;4926679;28;20228;-81
2022/12/25 10:30:22;;;;;;;0.70;0.70;;;17.50;42.60;;;;;;4942972;28;20165;-82
2022/12/25 10:32:48;;;;;;;0.75;0.73;;;17.50;42.40;;;;;;4975788;28;20624;-81
2022/12/25 10:35:16;;;;;;;0.95;0.65;;;17.50;42.60;;;;;;4942646;28;20168;-81
2022/12/25 10:37:42;;;;;;;0.70;0.70;;;17.50;42.40;;;;;;4942824;28;20207;-80
2022/12/25 10:40:40;;;;;;;0.88;0.80;;;17.40;42.50;;;;;;4942557;28;20165;-81
2022/12/25 10:43:11;;;;;;;0.70;0.70;;;17.50;42.60;;;;;;4958269;28;20319;-82
2022/12/25 10:45:45;;;;;;;0.90;0.80;;;17.50;42.40;;;;;;4942242;28;20169;-82
2022/12/25 10:48:19;;;;;;;1.02;0.90;;;17.50;42.40;;;;;;4942463;28;20642;-82
2022/12/25 10:50:45;;;;;;;0.80;0.80;;;17.50;42.40;;;;;;4926795;28;20172;-82
2022/12/25 10:53:20;;;;;;;0.80;0.80;;;17.50;42.50;;;;;;4926325;28;20175;-82
2022/12/25 10:55:55;;;;;;;0.77;0.77;;;17.50;42.60;;;;;;4926543;28;20219;-82
2022/12/25 10:58:20;;;;;;;0.90;0.80;;;17.50;42.60;;;;;;4942394;28;20224;-81
2022/12/25 11:01:02;;;;;;;0.70;0.70;;;17.50;42.60;;;;;;4957979;28;20650;-82
2022/12/25 11:03:30;;;;;;;0.98;0.88;;;17.50;42.40;;;;;;4958299;28;20161;-81
2022/12/25 11:05:56;;;;;;;0.63;0.63;;;17.50;42.50;;;;;;4942207;28;20156;-82
2022/12/25 11:08:23;;;;;;;0.60;0.60;;;17.50;42.40;;;;;;4957772;28;20168;-81
2022/12/25 11:11:04;;;;;;;0.52;0.52;;;17.50;42.40;;;;;;4958091;28;20562;-81
2022/12/25 11:13:32;;;;;;;0.68;0.68;;;17.60;42.40;;;;;;4975035;28;20215;-82
2022/12/25 11:16:09;;;;;;;0.85;0.85;;;17.60;42.40;;;;;;4941969;28;20163;-82
2022/12/25 11:18:45;;;;;;;0.75;0.75;;;17.50;42.30;;;;;;4942549;28;20567;-82
2022/12/25 11:21:22;;;;;;;1.00;0.90;;;17.60;42.30;;;;;;4942153;28;20517;-82
2022/12/25 11:23:49;;;;;;;0.65;0.60;;;17.60;42.30;;;;;;4958932;28;20153;-82
2022/12/25 11:26:16;;;;;;;0.60;0.60;;;17.50;42.30;;;;;;4941551;28;20575;-84
2022/12/25 11:28:43;;;;;;;1.00;0.90;;;17.60;42.40;;;;;;4957801;28;20215;-82
2022/12/25 11:31:13;;;;;;;1.25;1.00;;;17.50;42.30;;;;;;4957845;28;20168;-82
2022/12/25 11:33:49;;;;;;;0.70;0.70;;;17.50;42.30;;;;;;4941910;28;20247;-82
2022/12/25 11:36:23;;;;;;;0.73;0.73;;;17.50;42.40;;;;;;4941568;28;20264;-82
2022/12/25 11:38:51;;;;;;;0.75;0.73;;;17.50;42.30;;;;;;4957499;28;20171;-82
2022/12/25 11:41:19;;;;;;;0.85;0.80;;;17.60;42.30;;;;;;4957880;28;20167;-82
2022/12/25 11:43:52;;;;;;;1.10;1.00;;;17.50;42.20;;;;;;4957764;28;20223;-82
2022/12/25 11:46:40;;;;;;;0.93;0.80;;;17.60;42.10;;;;;;4942079;28;20230;-81
2022/12/25 11:49:09;;;;;;;0.70;0.68;;;17.60;42.30;;;;;;4960078;28;20180;-82
2022/12/25 11:51:37;;;;;;;1.17;0.77;;;17.60;42.00;;;;;;4957407;28;20239;-82
2022/12/25 11:54:13;;;;;;;0.70;0.70;;;17.60;42.10;;;;;;4941580;28;20616;-81
2022/12/25 11:56:39;;;;;;;0.80;0.80;;;17.50;42.20;;;;;;4974464;28;20200;-82
2022/12/25 11:59:10;;;;;;;0.80;0.80;;;17.60;42.20;;;;;;4941456;28;20525;-82
2022/12/25 12:01:42;;;;;;;1.08;1.00;;;17.60;42.10;;;;;;4926267;28;20167;-82
2022/12/25 12:04:28;;;;;;;0.93;0.88;;;17.60;42.10;;;;;;4926010;28;20171;-82
2022/12/25 12:07:15;;;;;;;0.65;0.60;;;17.60;42.10;;;;;;4957221;28;20615;-82
2022/12/25 12:10:03;;;;;;;0.68;0.68;;;17.50;42.10;;;;;;4960060;28;20694;-82
2022/12/25 12:12:55;;;;;;;0.80;0.80;;;17.60;42.10;;;;;;4930782;28;20169;-82
2022/12/25 12:15:28;;;;;;;0.70;0.70;;;17.60;42.20;;;;;;4941638;28;20235;-82
2022/12/25 12:17:55;;;;;;;0.82;0.82;;;17.60;42.10;;;;;;4925594;28;20189;-82
2022/12/25 12:20:30;;;;;;;0.70;0.70;;;17.60;42.10;;;;;;4944538;28;20247;-82
2022/12/25 12:22:56;;;;;;;0.80;0.80;;;17.60;42.10;;;;;;4929832;28;20164;-82
2022/12/25 12:25:22;;;;;;;1.08;0.90;;;17.60;42.00;;;;;;4944965;28;20213;-82
2022/12/25 12:27:52;;;;;;;0.80;0.80;;;17.60;42.00;;;;;;4944810;28;20221;-82
2022/12/25 12:30:24;;;;;;;1.00;0.93;;;17.60;42.10;;;;;;4961044;28;20157;-81
2022/12/25 12:32:51;;;;;;;0.80;0.80;;;17.60;42.20;;;;;;4960737;28;20164;-81
2022/12/25 12:35:21;;;;;;;0.80;0.80;;;17.60;41.90;;;;;;4929021;28;20176;-81
2022/12/25 12:37:50;;;;;;;0.93;0.90;;;17.60;42.10;;;;;;4960966;28;20644;-81
2022/12/25 12:40:32;;;;;;;0.95;0.85;;;17.60;42.00;;;;;;4944837;28;20153;-81
2022/12/25 12:42:58;;;;;;;1.00;0.90;;;17.60;42.10;;;;;;4977773;28;20204;-81
2022/12/25 12:45:26;;;;;;;0.80;0.80;;;17.50;42.00;;;;;;4977857;28;20244;-82
2022/12/25 12:47:52;;;;;;;1.05;1.00;;;17.60;41.90;;;;;;4944713;28;20240;-81
2022/12/25 12:50:38;;;;;;;0.93;0.93;;;17.60;42.00;;;;;;4960389;28;20247;-82
2022/12/25 12:53:29;;;;;;;0.90;0.90;;;17.60;42.10;;;;;;4960766;28;20161;-81
2022/12/25 12:55:57;;;;;;;1.08;0.98;;;17.60;42.00;;;;;;4977497;28;20157;-81
2022/12/25 12:58:32;;;;;;;1.00;1.00;;;17.50;41.90;;;;;;4944303;28;20173;-81
2022/12/25 13:01:29;;;;;;;1.20;1.10;;;17.60;41.80;;;;;;4945323;28;20164;-81
2022/12/25 13:04:17;;;;;;;0.90;0.90;;;17.60;41.70;;;;;;4948345;28;20169;-81
2022/12/25 13:06:52;;;;;;;0.80;0.80;;;17.70;41.80;;;;;;4960118;28;20177;-82
2022/12/25 13:09:47;;;;;;;1.35;1.25;;;17.70;41.90;;;;;;4945188;28;20161;-82
2022/12/25 13:12:14;;;;;;;1.20;1.10;;;17.60;41.50;;;;;;4947882;28;20161;-82
2022/12/25 13:14:44;;;;;;;0.98;0.98;;;17.70;41.70;;;;;;4977231;28;20161;-81
2022/12/25 13:17:12;;;;;;;1.13;1.02;;;17.70;41.60;;;;;;4928125;28;20197;-81
2022/12/25 13:19:41;;;;;;;0.90;0.90;;;17.60;41.60;;;;;;4944115;28;20256;-82
2022/12/25 13:22:09;;;;;;;1.45;1.35;;;17.70;41.60;;;;;;4959899;28;20706;-82
2022/12/25 13:24:35;;;;;;;1.10;1.00;;;17.70;41.60;;;;;;4944389;28;20201;-82
2022/12/25 13:27:15;;;;;;;0.80;0.80;;;17.70;41.80;;;;;;4927660;28;20224;-81
2022/12/25 13:29:40;;;;;;;1.05;0.95;;;17.60;41.80;;;;;;4929811;28;20176;-82
2022/12/25 13:32:14;;;;;;;0.95;0.93;;;17.70;41.40;;;;;;4943658;28;20169;-82
2022/12/25 13:34:40;;;;;;;1.10;1.00;;;17.70;41.60;;;;;;4944564;28;20208;-82
2022/12/25 13:37:11;;;;;;;0.75;0.75;;;17.70;41.70;;;;;;4927908;28;20215;-82
2022/12/25 13:39:38;;;;;;;0.80;0.80;;;17.70;41.90;;;;;;4944249;28;20172;-82
2022/12/25 13:42:04;;;;;;;1.05;0.98;;;17.60;41.60;;;;;;4943616;28;20157;-82
2022/12/25 13:44:50;;;;;;;1.08;0.98;;;17.60;41.60;;;;;;4943539;28;20149;-82
2022/12/25 13:47:24;;;;;;;1.02;1.00;;;17.70;41.70;;;;;;4943298;28;20169;-83
2022/12/25 13:49:51;;;;;;;1.17;1.08;;;17.70;41.50;;;;;;4928501;28;20165;-81
2022/12/25 13:52:20;;;;;;;1.10;1.00;;;17.70;41.60;;;;;;4927942;28;20169;-81
2022/12/25 13:54:58;;;;;;;1.02;0.93;;;17.70;41.80;;;;;;4927637;28;20172;-82
2022/12/25 13:57:28;;;;;;;0.90;0.90;;;17.60;41.70;;;;;;4943897;28;20212;-81
2022/12/25 13:59:54;;;;;;;1.10;1.00;;;17.60;41.60;;;;;;4976421;28;20188;-81
2022/12/25 14:02:24;;;;;;;1.25;1.15;;;17.60;41.30;;;;;;4927827;28;20184;-82
2022/12/25 14:04:50;;;;;;;1.10;1.10;;;17.70;41.20;;;;;;4959542;28;20252;-81
2022/12/25 14:07:18;;;;;;;1.02;1.00;;;17.70;41.50;;;;;;4959059;28;20666;-81
2022/12/25 14:09:43;;;;;;;1.20;1.10;;;17.70;41.30;;;;;;4943087;28;20619;-81
2022/12/25 14:12:09;;;;;;;1.20;1.10;;;17.70;41.60;;;;;;4959009;28;20172;-81
2022/12/25 14:14:34;;;;;;;1.30;1.20;;;17.70;41.50;;;;;;4959099;28;20536;-81
2022/12/25 14:17:00;;;;;;;1.30;1.20;;;17.70;41.50;;;;;;4958978;28;20679;-82
2022/12/25 14:19:31;;;;;;;0.93;0.93;;;17.70;41.60;;;;;;4958881;28;20521;-81
2022/12/25 14:22:09;;;;;;;1.05;1.00;;;17.60;41.60;;;;;;4943110;28;20157;-81
2022/12/25 14:24:35;;;;;;;1.17;1.08;;;17.60;41.60;;;;;;4944289;28;20160;-81
2022/12/25 14:27:03;;;;;;;1.63;1.20;;;17.70;41.40;;;;;;4959063;28;20275;-81
2022/12/25 14:29:34;;;;;;;1.20;1.10;;;17.70;41.60;;;;;;4927737;28;20651;-81
2022/12/25 14:32:03;;;;;;;1.08;0.98;;;17.60;41.60;;;;;;4944174;28;20164;-81
2022/12/25 14:34:29;;;;;;;1.30;1.20;;;17.70;41.70;;;;;;4930251;28;20532;-81
2022/12/25 14:36:54;;;;;;;1.38;1.27;;;17.60;41.40;;;;;;4933443;28;20686;-81